Pagrindinis puslapis
METAR-TAF:

METAR-TAF

Oro uostai :

Kokola, Suomija

platuma: 63-43N, ilguma: 023-09E, Aukštis: 25 m

Dabartinis oras

Ataskaita buvo paskelbta 33 minutes, ne 07:20 UTC
Vėjas 7 kt iš Šiaurės/Šiaurės Rytų
Temperatūra -7°C
Drėgmė 93%
Slėgis 1013 hPa
Matomumas: 6000 m
Su prošvaistėmis ne aukštis 900 ft
sniegas

METAR: EFKK 100720Z AUTO 02007KT 6000 -SN BKN009 M07/M08 Q1013

Laikas: 09:53 (07:53 UTC)

Prognozė

Ataskaita buvo paskelbta 3 valandos ir 14 minutes, ne 04:39 UTC
Prognozė galioja nuo 10 metu 04 UTC su 10 metu 06 UTC
Vėjas 8 kt iš Šiaurės/Šiaurės Rytų
Matomumas 10 km arba daugiau
Apsiniaukę ne aukštis 700 ft
Laikinai
nuo 10 metu 04 UTC su 10 metu 06 UTC
Matomumas: 6000 m
Su prošvaistėmis ne aukštis 1500 ft
sniegas

TAF: EFKK 100439Z 1004/1006 02008KT 9999 OVC007 TEMPO 1004/1006 6000 -SN BKN015

Orai ataskaitas ir orų prognozės (METAR, TAF).

turimą stotys yra geltonos ir raudonos taškus žemėlapyje.

Perkelti pele per norėdami pamatyti stoties vardą.

Tada spustelėkite, norėdami matyti oro stebėjimo ir prognozės.

Norėdami pakeisti žemėlapį: spustelėkite ant žalios mygtukų su juodo kryžiaus žemyn,; žalią mygtuką su brūkšneliu, jei norite nutolinti; arba žalių rodyklių gretimoms žemėlapius.


METAR-TAF: